Time;durP1;ratioP1;P1;durP2;ratioP2;P2;SDS_P1;SDS_P2;PMS_P1;PMS_P2;Temp;Humidity;BMP_temperature;BMP_pressure;BME280_temperature;BME280_humidity;BME280_pressure;Samples;Min_cycle;Max_cycle;Signal;HPM_P1;HPM_P2
2022/01/17 00:01:10;;;;;;;15.52;7.63;;;;;;;-1.64;82.56;93659.50;5050410;28;20488;-84
2022/01/17 00:03:37;;;;;;;14.75;7.20;;;;;;;-1.68;82.66;93652.28;5050580;28;20056;-84
2022/01/17 00:06:04;;;;;;;15.90;7.85;;;;;;;-1.70;82.33;93634.00;5050372;28;20115;-84
2022/01/17 00:08:31;;;;;;;14.57;7.50;;;;;;;-1.59;81.91;93650.78;5050255;28;20049;-84
2022/01/17 00:10:58;;;;;;;11.05;6.40;;;;;;;-1.62;82.36;93654.34;5050249;28;20049;-83
2022/01/17 00:13:28;;;;;;;15.05;7.97;;;;;;;-1.54;81.95;93641.91;5050347;28;20045;-84
2022/01/17 00:15:59;;;;;;;15.50;7.13;;;;;;;-1.53;81.60;93635.16;5050310;28;20091;-84
2022/01/17 00:18:53;;;;;;;14.07;7.40;;;;;;;-1.54;81.09;93641.91;5050113;28;20122;-84
2022/01/17 00:21:19;;;;;;;12.70;6.35;;;;;;;-1.67;82.15;93626.19;5050010;28;20049;-84
2022/01/17 00:23:46;;;;;;;13.00;5.75;;;;;;;-1.59;81.89;93640.69;5050358;28;20111;-84
2022/01/17 00:26:12;;;;;;;13.63;6.65;;;;;;;-1.55;81.87;93635.28;5050452;28;20056;-84
2022/01/17 00:28:40;;;;;;;16.00;6.78;;;;;;;-1.56;82.50;93642.94;5052370;28;20503;-84
2022/01/17 00:31:08;;;;;;;16.63;6.88;;;;;;;-1.56;81.69;93648.78;5053378;28;20466;-84
2022/01/17 00:33:36;;;;;;;15.65;6.53;;;;;;;-1.54;82.04;93648.66;5052193;28;20084;-83
2022/01/17 00:36:04;;;;;;;13.57;6.65;;;;;;;-1.54;82.39;93638.56;5053456;28;20045;-83
2022/01/17 00:38:31;;;;;;;18.25;8.60;;;;;;;-1.52;81.82;93639.25;5053092;28;20057;-84
2022/01/17 00:40:57;;;;;;;21.83;8.57;;;;;;;-1.56;82.34;93643.75;5053082;28;20480;-83
2022/01/17 00:43:25;;;;;;;19.20;8.02;;;;;;;-1.70;82.28;93634.00;5053199;28;20534;-85
2022/01/17 00:45:53;;;;;;;12.27;5.43;;;;;;;-1.61;82.50;93649.16;5052929;28;20127;-84
2022/01/17 00:48:20;;;;;;;13.38;6.20;;;;;;;-1.65;82.79;93636.94;5052875;28;20045;-84
2022/01/17 00:50:47;;;;;;;12.60;6.30;;;;;;;-1.64;83.03;93641.03;5053128;28;20795;-85
2022/01/17 00:53:14;;;;;;;12.32;5.50;;;;;;;-1.75;82.67;93642.72;5053112;28;20049;-84
2022/01/17 00:55:41;;;;;;;12.98;6.65;;;;;;;-1.64;82.89;93659.50;5052808;28;20483;-85
2022/01/17 00:58:08;;;;;;;13.10;5.25;;;;;;;-1.71;82.49;93645.00;5049878;28;20491;-84
2022/01/17 01:00:35;;;;;;;15.52;6.03;;;;;;;-1.66;82.10;93646.19;5052758;28;20404;-86
2022/01/17 01:03:03;;;;;;;12.20;5.93;;;;;;;-1.62;82.46;93650.06;4687148;28;10009356;-85
2022/01/17 01:05:30;;;;;;;14.95;6.43;;;;;;;-1.66;82.18;93653.75;5030408;28;20438;-85
2022/01/17 01:07:57;;;;;;;17.98;7.43;;;;;;;-1.63;81.64;93648.50;5032818;28;20046;-85
2022/01/17 01:10:24;;;;;;;19.10;8.75;;;;;;;-1.56;81.94;93648.00;5032578;28;20484;-85
2022/01/17 01:12:52;;;;;;;19.17;9.27;;;;;;;-1.58;81.55;93640.53;5032845;28;20050;-85
2022/01/17 01:15:33;;;;;;;19.08;8.57;;;;;;;-1.63;82.06;93630.84;5033014;28;20144;-84
2022/01/17 01:18:02;;;;;;;15.88;6.55;;;;;;;-1.57;82.57;93638.84;5033387;28;20373;-85
2022/01/17 01:20:54;;;;;;;17.60;6.85;;;;;;;-1.57;82.65;93633.81;5033086;28;20049;-84
2022/01/17 01:28:47;;;;;;;19.05;8.65;;;;;;;-2.04;83.35;93570.31;5033028;28;20056;-85
2022/01/17 01:31:18;;;;;;;19.42;9.73;;;;;;;-1.62;83.68;93614.03;5032912;28;20542;-85
2022/01/17 01:33:52;;;;;;;19.58;8.90;;;;;;;-1.59;83.18;93615.50;5032893;28;20512;-85
2022/01/17 01:36:25;;;;;;;16.58;8.10;;;;;;;-1.63;82.96;93615.75;5032618;28;20060;-85
2022/01/17 01:38:52;;;;;;;13.77;7.22;;;;;;;-1.70;83.32;93622.22;5032381;28;20140;-85
2022/01/17 01:41:20;;;;;;;14.07;6.05;;;;;;;-1.80;82.95;93617.09;5032282;28;20064;-85
2022/01/17 01:43:46;;;;;;;15.30;6.80;;;;;;;-1.76;84.46;93620.19;5032692;28;20045;-85
2022/01/17 01:46:17;;;;;;;17.45;7.38;;;;;;;-1.90;84.48;93616.25;5032630;28;20050;-85
2022/01/17 01:48:44;;;;;;;13.05;7.20;;;;;;;-1.89;84.54;93617.84;5032447;28;20053;-85
2022/01/17 01:51:14;;;;;;;13.35;7.05;;;;;;;-1.80;84.14;93622.13;5032517;28;20045;-85
2022/01/17 01:53:43;;;;;;;13.80;6.95;;;;;;;-1.82;83.45;93621.47;5032640;28;20132;-86
2022/01/17 01:56:10;;;;;;;33.78;13.15;;;;;;;-1.90;83.29;93627.13;5032434;28;20053;-85
2022/01/17 01:58:36;;;;;;;57.00;23.65;;;;;;;-2.08;83.73;93600.91;5032276;28;20061;-85
2022/01/17 02:01:03;;;;;;;62.85;25.73;;;;;;;-2.13;84.91;93626.44;5032159;28;20511;-85
2022/01/17 02:03:30;;;;;;;64.85;25.13;;;;;;;-2.27;85.71;93619.97;5032675;28;20532;-85
2022/01/17 02:05:57;;;;;;;62.70;27.20;;;;;;;-2.40;85.64;93622.66;5032150;28;20507;-85
2022/01/17 02:08:24;;;;;;;55.38;24.85;;;;;;;-2.57;86.74;93613.91;5032218;28;20045;-85
2022/01/17 02:10:52;;;;;;;87.78;39.60;;;;;;;-2.91;88.53;93611.50;5032173;28;20049;-85
2022/01/17 02:13:19;;;;;;;170.68;61.50;;;;;;;-3.70;92.65;93600.56;5032094;28;20490;-86
2022/01/17 02:15:47;;;;;;;241.05;114.20;;;;;;;-4.00;94.93;93605.22;5031790;28;20190;-85
2022/01/17 02:18:19;;;;;;;193.68;85.15;;;;;;;-3.96;96.02;93606.59;5032114;28;20057;-85
2022/01/17 02:21:09;;;;;;;206.07;96.75;;;;;;;-4.09;95.79;93599.13;5031959;28;20050;-85
2022/01/17 02:23:36;;;;;;;91.28;42.45;;;;;;;-4.30;97.08;93596.47;5031756;28;20050;-86
2022/01/17 02:26:04;;;;;;;91.93;43.75;;;;;;;-4.80;98.86;93559.81;5031674;28;20565;-86
2022/01/17 02:28:33;;;;;;;91.78;45.22;;;;;;;-4.68;100.00;93592.47;5031913;28;20059;-85
2022/01/17 02:31:00;;;;;;;97.88;41.05;;;;;;;-4.79;100.00;93593.19;5031671;28;20484;-85
2022/01/17 02:33:27;;;;;;;90.97;40.92;;;;;;;-4.96;100.00;93590.97;5031580;28;20485;-85
2022/01/17 02:35:55;;;;;;;155.95;72.57;;;;;;;-5.01;100.00;93597.97;5031498;28;20488;-86
2022/01/17 02:38:22;;;;;;;151.05;78.45;;;;;;;-5.04;100.00;93600.72;5031496;28;20045;-85
2022/01/17 02:40:56;;;;;;;85.72;35.47;;;;;;;-5.04;100.00;93600.72;5031392;28;20053;-85
2022/01/17 02:43:24;;;;;;;91.43;35.83;;;;;;;-5.07;100.00;93605.91;5031472;28;20052;-85
2022/01/17 02:48:38;;;;;;;82.10;34.45;;;;;;;-4.95;100.00;93596.78;5031441;28;20507;-85
2022/01/17 02:51:08;;;;;;;77.53;33.65;;;;;;;-5.02;100.00;93583.06;5031259;28;20132;-85
2022/01/17 02:53:35;;;;;;;73.88;34.05;;;;;;;-4.97;100.00;93603.59;5031551;28;20049;-85
2022/01/17 02:56:04;;;;;;;77.60;30.35;;;;;;;-5.02;100.00;93605.59;5031405;28;20053;-85
2022/01/17 02:58:35;;;;;;;68.32;31.27;;;;;;;-5.33;100.00;93603.47;5031252;28;20041;-86
2022/01/17 03:01:05;;;;;;;73.45;35.00;;;;;;;-5.21;100.00;93601.03;5031076;28;20045;-85
2022/01/17 03:03:35;;;;;;;67.43;33.60;;;;;;;-5.08;100.00;93596.81;5031108;28;20057;-85
2022/01/17 03:06:03;;;;;;;61.63;30.20;;;;;;;-5.21;100.00;93591.84;5031154;28;20104;-85
2022/01/17 03:08:34;;;;;;;77.57;31.52;;;;;;;-5.03;100.00;93592.28;5031264;28;20120;-85
2022/01/17 03:11:05;;;;;;;115.18;41.20;;;;;;;-5.49;100.00;93586.19;5030909;28;20555;-85
2022/01/17 03:13:35;;;;;;;117.45;42.42;;;;;;;-5.32;100.00;93596.78;5031000;28;20582;-85
2022/01/17 03:16:04;;;;;;;149.93;46.03;;;;;;;-5.54;100.00;93586.50;5030924;28;20525;-85
2022/01/17 03:18:36;;;;;;;72.93;32.67;;;;;;;-6.05;100.00;93579.84;5031360;28;20053;-85
2022/01/17 03:21:04;;;;;;;58.10;29.35;;;;;;;-6.05;100.00;93602.34;5031109;28;20245;-84
2022/01/17 03:23:32;;;;;;;63.15;29.17;;;;;;;-5.89;100.00;93592.13;5031011;28;20045;-85
2022/01/17 03:25:59;;;;;;;73.82;36.28;;;;;;;-5.83;100.00;93589.22;5030815;28;20057;-86
2022/01/17 03:28:26;;;;;;;64.72;29.98;;;;;;;-6.17;100.00;93578.94;5030788;28;20053;-86
2022/01/17 03:30:55;;;;;;;74.20;33.67;;;;;;;-6.16;100.00;93578.03;5030644;28;20046;-85
2022/01/17 03:33:22;;;;;;;61.03;29.05;;;;;;;-6.10;100.00;93585.16;5030728;28;20060;-85
2022/01/17 03:35:52;;;;;;;59.35;28.33;;;;;;;-6.11;100.00;93577.75;5030707;28;20054;-86
2022/01/17 03:38:21;;;;;;;73.05;29.85;;;;;;;-5.96;100.00;93593.44;5030790;28;20457;-85
2022/01/17 03:40:51;;;;;;;66.40;30.67;;;;;;;-6.03;100.00;93588.03;5030571;28;20080;-85
2022/01/17 03:43:20;;;;;;;84.35;33.83;;;;;;;-5.89;100.00;93599.63;5030584;28;20053;-85
2022/01/17 03:45:49;;;;;;;116.93;36.10;;;;;;;-6.15;100.00;93571.34;5030767;28;20400;-85
2022/01/17 03:48:17;;;;;;;104.85;33.58;;;;;;;-5.98;100.00;93601.03;5030745;28;20049;-86
2022/01/17 03:50:44;;;;;;;105.25;34.60;;;;;;;-5.98;100.00;93595.22;5030535;28;20042;-86
2022/01/17 03:53:11;;;;;;;112.32;33.00;;;;;;;-5.97;100.00;93601.84;5030645;28;20049;-85
2022/01/17 03:55:38;;;;;;;111.13;36.17;;;;;;;-6.08;100.00;93607.53;5030399;28;20562;-85
2022/01/17 03:58:08;;;;;;;98.32;39.25;;;;;;;-6.19;100.00;93618.25;5030752;28;20045;-85
2022/01/17 04:00:38;;;;;;;146.70;49.95;;;;;;;-6.23;100.00;93619.34;5028837;28;20099;-85
2022/01/17 04:03:05;;;;;;;153.43;54.75;;;;;;;-6.23;100.00;93612.66;5032048;28;20045;-85
2022/01/17 04:05:32;;;;;;;121.70;43.85;;;;;;;-6.11;100.00;93602.75;5034834;28;20065;-85
2022/01/17 04:07:59;;;;;;;118.88;39.83;;;;;;;-6.23;100.00;93609.34;5034357;28;20056;-84
2022/01/17 04:10:28;;;;;;;64.80;28.90;;;;;;;-6.37;100.00;93615.22;5034167;28;20053;-85
2022/01/17 04:13:00;;;;;;;95.45;41.83;;;;;;;-6.38;100.00;93621.91;5034528;28;20107;-86
2022/01/17 04:15:29;;;;;;;111.32;47.28;;;;;;;-6.44;100.00;93615.59;5034126;28;20563;-86
2022/01/17 04:17:57;;;;;;;87.53;38.42;;;;;;;-6.63;100.00;93605.94;5034101;28;20053;-86
2022/01/17 04:20:28;;;;;;;68.85;33.25;;;;;;;-6.50;100.00;93625.97;5034102;28;20111;-86
2022/01/17 04:22:56;;;;;;;66.50;32.38;;;;;;;-6.66;100.00;93627.81;5034251;28;20088;-86
2022/01/17 04:25:27;;;;;;;62.08;31.27;;;;;;;-6.77;100.00;93633.50;5034073;28;20062;-86
2022/01/17 04:27:54;;;;;;;58.22;31.55;;;;;;;-7.43;100.00;93535.03;5033963;28;20049;-86
2022/01/17 04:30:21;;;;;;;60.10;31.30;;;;;;;-6.85;100.00;93626.47;5033877;28;20140;-86
2022/01/17 04:32:50;;;;;;;63.72;31.33;;;;;;;-6.75;100.00;93632.47;5034024;28;20045;-86
2022/01/17 04:35:21;;;;;;;54.17;28.90;;;;;;;-6.86;100.00;93623.16;5033750;28;20516;-86
2022/01/17 04:37:53;;;;;;;45.10;25.00;;;;;;;-6.77;100.00;93626.00;5033796;28;20049;-86
2022/01/17 04:40:21;;;;;;;52.88;25.33;;;;;;;-6.63;100.00;93635.94;5033860;28;20411;-87
2022/01/17 04:42:49;;;;;;;47.55;24.02;;;;;;;-6.63;100.00;93643.44;5033678;28;20515;-86
2022/01/17 04:45:20;;;;;;;45.70;24.75;;;;;;;-6.61;100.00;93638.34;5033660;28;20558;-86
2022/01/17 04:47:49;;;;;;;44.20;25.23;;;;;;;-6.41;100.00;93643.78;5033510;28;20427;-86
2022/01/17 04:50:21;;;;;;;46.55;26.70;;;;;;;-6.40;100.00;93623.69;5033398;28;20049;-87
2022/01/17 04:52:49;;;;;;;48.55;29.20;;;;;;;-6.26;100.00;93635.34;5033957;28;20076;-86
2022/01/17 04:55:18;;;;;;;47.63;28.17;;;;;;;-6.37;100.00;93615.22;5033630;28;20054;-87
2022/01/17 04:57:46;;;;;;;52.97;26.50;;;;;;;-6.14;100.00;93621.25;5033370;28;20049;-87
2022/01/17 05:00:15;;;;;;;50.20;27.30;;;;;;;-5.93;100.00;93635.75;5033193;28;20111;-87
2022/01/17 05:02:50;;;;;;;49.40;26.55;;;;;;;-5.77;100.00;93630.56;5033356;28;20057;-87
2022/01/17 05:05:19;;;;;;;49.47;27.23;;;;;;;-5.70;100.00;93621.75;5033307;28;20085;-86
2022/01/17 05:07:46;;;;;;;46.85;26.25;;;;;;;-5.54;100.00;93631.56;5033074;28;20488;-86
2022/01/17 05:10:20;;;;;;;47.78;25.90;;;;;;;-5.49;100.00;93628.75;5033179;28;20103;-85
2022/01/17 05:12:47;;;;;;;53.85;27.23;;;;;;;-5.47;100.00;93626.16;5033050;28;20048;-86
2022/01/17 05:15:28;;;;;;;55.05;28.80;;;;;;;-5.46;100.00;93625.22;5030431;28;20046;-86
2022/01/17 05:18:13;;;;;;;48.00;27.10;;;;;;;-5.42;100.00;93627.44;5033279;28;20057;-86
2022/01/17 05:20:46;;;;;;;43.90;26.20;;;;;;;-5.42;100.00;93617.41;5052870;28;20474;-86
2022/01/17 05:23:14;;;;;;;60.35;31.88;;;;;;;-5.59;100.00;93623.56;5052706;28;20049;-87
2022/01/17 05:25:41;;;;;;;63.03;33.58;;;;;;;-5.93;100.00;93623.25;5052875;28;20680;-86
2022/01/17 05:28:08;;;;;;;60.30;31.17;;;;;;;-6.12;100.00;93629.44;5052977;28;20114;-87
2022/01/17 05:30:36;;;;;;;80.55;35.55;;;;;;;-6.19;100.00;93618.25;5052805;28;20041;-88
2022/01/17 05:33:05;;;;;;;82.20;40.38;;;;;;;-6.29;100.00;93613.03;5052774;28;20467;-89
2022/01/17 05:35:32;;;;;;;83.15;40.92;;;;;;;-6.35;100.00;93611.72;5052543;28;21009;-89
2022/01/17 05:38:01;;;;;;;92.30;42.00;;;;;;;-6.40;100.00;93618.69;5052553;28;20103;-86
2022/01/17 05:40:28;;;;;;;80.53;40.65;;;;;;;-6.48;100.00;93610.91;5052580;28;20052;-85
2022/01/17 05:42:54;;;;;;;74.72;37.15;;;;;;;-6.25;100.00;93618.63;5052493;28;20573;-86
2022/01/17 05:45:28;;;;;;;85.50;36.95;;;;;;;-6.06;100.00;93626.56;5052547;28;20102;-86
2022/01/17 05:47:55;;;;;;;83.78;41.35;;;;;;;-5.91;100.00;93611.44;5052684;28;20045;-87
2022/01/17 05:50:24;;;;;;;87.72;41.63;;;;;;;-5.98;100.00;93610.25;5052678;28;20487;-87
2022/01/17 05:52:50;;;;;;;93.68;40.70;;;;;;;-6.05;100.00;93620.69;5052505;28;20086;-87
2022/01/17 05:55:19;;;;;;;84.30;40.78;;;;;;;-5.94;100.00;93604.94;5052140;28;20049;-87
2022/01/17 05:57:47;;;;;;;100.85;45.58;;;;;;;-5.75;100.00;93628.75;5052169;28;20106;-87
2022/01/17 06:00:18;;;;;;;95.43;43.05;;;;;;;-5.65;100.00;93641.47;5051588;28;20455;-88
2022/01/17 06:02:45;;;;;;;96.50;41.20;;;;;;;-5.63;100.00;93629.66;5051877;28;20474;-87
2022/01/17 06:05:24;;;;;;;;;;;;;;;;;;;;;
2022/01/17 06:07:53;;;;;;;98.55;49.47;;;;;;;-5.66;100.00;93653.19;5052202;28;20067;-87
2022/01/17 06:10:23;;;;;;;110.88;49.30;;;;;;;-5.97;100.00;93590.09;5052051;28;20052;-87
2022/01/17 06:13:10;;;;;;;111.90;51.63;;;;;;;-5.57;100.00;93648.47;5051902;28;20476;-87
2022/01/17 06:15:38;;;;;;;126.25;60.47;;;;;;;-5.60;100.00;93651.19;5051853;28;20102;-86
2022/01/17 06:18:05;;;;;;;124.05;57.83;;;;;;;-5.51;100.00;93650.59;5051846;28;20057;-87
2022/01/17 06:20:32;;;;;;;107.13;49.50;;;;;;;-5.60;100.00;93651.97;5051571;28;20622;-86
2022/01/17 06:22:58;;;;;;;108.40;43.92;;;;;;;-5.85;100.00;93651.06;5051706;28;20056;-87
2022/01/17 06:25:29;;;;;;;106.28;54.53;;;;;;;-5.90;100.00;93653.88;5051361;28;20049;-87
2022/01/17 06:28:02;;;;;;;109.40;51.38;;;;;;;-6.04;100.00;93662.28;5051481;28;20045;-87
2022/01/17 06:30:29;;;;;;;100.50;47.05;;;;;;;-6.05;100.00;93652.38;5048124;28;20057;-87
2022/01/17 06:32:56;;;;;;;122.15;64.18;;;;;;;-6.12;100.00;93649.47;5031719;28;20046;-87
2022/01/17 06:35:23;;;;;;;108.97;51.13;;;;;;;-6.00;100.00;93654.53;5031841;28;20479;-87
2022/01/17 06:37:51;;;;;;;101.50;48.22;;;;;;;-5.82;100.00;93665.09;5031608;28;20575;-87
2022/01/17 06:40:24;;;;;;;86.85;47.53;;;;;;;-5.70;100.00;93661.00;5031296;28;20057;-87
2022/01/17 06:42:58;;;;;;;86.13;47.70;;;;;;;-5.64;100.00;93653.09;5031453;28;20136;-88
2022/01/17 06:45:30;;;;;;;95.68;47.35;;;;;;;-5.60;100.00;93649.47;5031556;28;20096;-87
2022/01/17 06:48:07;;;;;;;92.97;47.65;;;;;;;-5.41;100.00;93654.06;5031513;28;20049;-87
2022/01/17 06:50:36;;;;;;;92.28;46.25;;;;;;;-5.39;100.00;93653.97;5031173;28;20183;-88
2022/01/17 06:53:03;;;;;;;91.72;45.88;;;;;;;-5.46;100.00;93655.28;5031490;28;20050;-87
2022/01/17 06:55:32;;;;;;;120.13;56.63;;;;;;;-5.29;100.00;93657.47;5031405;28;20057;-87
2022/01/17 06:58:02;;;;;;;160.32;71.03;;;;;;;-5.49;100.00;93658.78;5031346;28;20056;-87
2022/01/17 07:00:29;;;;;;;127.53;62.08;;;;;;;-5.29;100.00;93652.44;5031322;28;20059;-88
2022/01/17 07:02:57;;;;;;;135.02;61.28;;;;;;;-5.04;100.00;93655.84;5031111;28;20512;-88
2022/01/17 07:05:25;;;;;;;117.93;54.33;;;;;;;-4.85;100.00;93654.56;5030955;28;20515;-88
2022/01/17 07:07:53;;;;;;;111.28;53.78;;;;;;;-4.75;100.00;93653.03;5031078;28;20045;-88
2022/01/17 07:10:31;;;;;;;;;;;;;;;;;;;;;
2022/01/17 07:12:59;;;;;;;98.68;45.20;;;;;;;-4.71;100.00;93653.63;5027224;28;20508;-89
2022/01/17 07:15:28;;;;;;;94.40;46.45;;;;;;;-4.64;100.00;93674.84;5031003;28;20053;-89
2022/01/17 07:18:12;;;;;;;87.55;37.95;;;;;;;-4.49;100.00;93665.47;5030581;28;20053;-89
2022/01/17 07:20:40;;;;;;;94.78;40.97;;;;;;;-4.47;100.00;93668.69;5031175;28;20057;-90
2022/01/17 07:23:07;;;;;;;90.82;43.42;;;;;;;-4.76;100.00;93648.13;5031002;28;20064;-89
2022/01/17 07:25:38;;;;;;;95.55;38.78;;;;;;;-4.48;100.00;93703.88;5030554;28;20050;-89
2022/01/17 07:28:09;;;;;;;84.78;36.38;;;;;;;-4.68;100.00;93701.03;5030745;28;20065;-89
2022/01/17 07:30:38;;;;;;;95.10;34.70;;;;;;;-4.62;100.00;93705.66;5030877;28;20049;-90
2022/01/17 07:33:06;;;;;;;79.45;37.88;;;;;;;-4.60;100.00;93687.97;5030681;28;20065;-89
2022/01/17 07:35:39;;;;;;;132.35;57.10;;;;;;;-4.43;100.00;93715.19;5030798;28;20046;-89
2022/01/17 07:38:08;;;;;;;74.03;35.45;;;;;;;-4.49;100.00;93707.31;5030082;28;20484;-89
2022/01/17 07:40:35;;;;;;;70.63;30.95;;;;;;;-4.57;100.00;93650.16;5030495;28;20492;-89
2022/01/17 07:43:07;;;;;;;67.20;30.85;;;;;;;-4.20;100.00;93661.84;5030902;28;20053;-89
2022/01/17 07:45:36;;;;;;;66.15;30.35;;;;;;;-3.86;100.00;93663.63;5031281;28;20136;-90
2022/01/17 07:48:23;;;;;;;59.13;26.17;;;;;;;-3.62;100.00;93656.84;5030904;28;20041;-90
2022/01/17 07:50:50;;;;;;;55.08;25.05;;;;;;;-3.33;100.00;93679.94;5030872;28;20455;-90
2022/01/17 07:53:19;;;;;;;58.28;24.95;;;;;;;-3.12;100.00;93683.38;5030439;28;20053;-91
2022/01/17 07:55:46;;;;;;;66.47;28.77;;;;;;;-2.89;100.00;93690.91;5030692;28;20049;-90
2022/01/17 07:58:17;;;;;;;64.80;30.73;;;;;;;-2.60;100.00;93719.81;5030644;28;20407;-90
2022/01/17 08:00:44;;;;;;;91.78;45.88;;;;;;;-2.43;100.00;93734.41;5030404;28;20056;-90
2022/01/17 08:03:12;;;;;;;101.18;44.45;;;;;;;-2.16;100.00;93781.00;5030490;28;20053;-90
2022/01/17 08:05:39;;;;;;;76.97;37.53;;;;;;;-1.96;100.00;93765.28;5030390;28;20053;-90
2022/01/17 08:08:10;;;;;;;84.90;41.92;;;;;;;-1.84;99.84;93738.34;5030636;28;20393;-90
2022/01/17 08:10:39;;;;;;;97.93;43.97;;;;;;;-1.81;98.38;93703.66;5030268;28;20042;-90
2022/01/17 08:13:09;;;;;;;96.47;47.35;;;;;;;-1.41;98.33;93709.75;5030277;28;20100;-89
2022/01/17 08:15:38;;;;;;;106.43;48.17;;;;;;;-1.20;97.04;93683.72;5030385;28;20411;-90
2022/01/17 08:18:05;;;;;;;116.93;49.00;;;;;;;-1.06;96.76;93664.13;5035476;28;20554;-89
2022/01/17 08:20:32;;;;;;;117.47;51.50;;;;;;;-0.79;95.99;93668.59;5030040;28;20107;-91
2022/01/17 08:23:00;;;;;;;103.28;47.45;;;;;;;-0.61;95.41;93657.91;5030299;28;20053;-90
2022/01/17 08:25:28;;;;;;;113.05;49.20;;;;;;;-0.30;95.13;93695.66;5030253;28;20131;-91
2022/01/17 08:27:54;;;;;;;105.63;47.20;;;;;;;-0.10;95.16;93734.34;5030264;28;20403;-92
2022/01/17 08:30:34;;;;;;;;;;;;;;;;;;;;;
2022/01/17 08:33:03;;;;;;;103.75;45.92;;;;;;;0.15;88.07;93794.59;5029682;28;20499;-91
2022/01/17 08:35:34;;;;;;;103.03;47.13;;;;;;;0.32;89.44;93804.06;5030234;28;20099;-91
2022/01/17 08:38:28;;;;;;;107.20;46.67;;;;;;;0.44;89.73;93809.81;5030237;28;20076;-92
2022/01/17 08:40:57;;;;;;;111.90;49.63;;;;;;;0.66;89.94;93775.06;5029862;28;20483;-92
2022/01/17 08:43:30;;;;;;;106.93;45.17;;;;;;;0.77;89.84;93747.09;5030049;28;20084;-92
2022/01/17 08:46:09;;;;;;;;;;;;;;;;;;;;;
2022/01/17 08:48:54;;;;;;;;;;;;;;;;;;;;;
2022/01/17 08:51:26;;;;;;;;;;;;;;;1.27;86.39;93722.47;5030510;28;20419;-92
2022/01/17 08:54:00;;;;;;;84.57;41.90;;;;;;;1.23;85.06;93687.44;5033279;28;19925;-93
2022/01/17 08:56:29;;;;;;;98.65;47.72;;;;;;;1.51;83.79;93670.50;5050756;28;20045;-90
2022/01/17 08:59:07;;;;;;;;;;;;;;;;;;;;;
2022/01/17 09:01:38;;;;;;;29.05;14.82;;;;;;;1.71;80.69;93675.47;5049442;28;20052;-90
2022/01/17 09:04:14;;;;;;;21.70;10.13;;;;;;;1.72;73.91;93664.38;5051613;28;20052;-90
2022/01/17 09:07:16;;;;;;;;;;;;;;;;;;;;;
2022/01/17 09:09:57;;;;;;;;;;;;;;;;;;;;;
2022/01/17 09:12:26;;;;;;;19.05;9.77;;;;;;;1.81;75.16;93579.13;5047312;28;20064;-89
2022/01/17 09:14:55;;;;;;;18.38;7.63;;;;;;;2.19;70.34;93605.06;5053281;28;20044;-89
2022/01/17 09:17:23;;;;;;;18.80;9.75;;;;;;;2.29;74.03;93609.22;5052935;28;20522;-88
2022/01/17 09:30:44;;;;;;;10.80;5.85;;;;;;;2.09;70.03;93508.84;4809070;29;20061;-90
2022/01/17 09:33:42;;;;;;;15.13;8.02;;;;;;;2.40;76.48;93568.41;4895061;29;20052;-87
2022/01/17 09:36:59;;;;;;;12.63;7.45;;;;;;;2.53;76.00;93532.50;4900562;29;20430;-87
2022/01/17 09:39:27;;;;;;;19.45;9.07;;;;;;;3.03;75.11;93596.13;4964444;28;20169;-85
2022/01/17 09:41:56;;;;;;;14.20;6.78;;;;;;;2.52;74.31;93564.69;4991083;28;20452;-86
2022/01/17 09:44:23;;;;;;;20.52;10.73;;;;;;;2.85;75.93;93608.91;5030645;28;20156;-84
2022/01/17 09:46:53;;;;;;;15.32;7.10;;;;;;;2.78;75.40;93603.66;5052336;28;20041;-84
2022/01/17 09:49:25;;;;;;;14.20;6.63;;;;;;;2.79;75.51;93592.56;5052483;28;20419;-83
2022/01/17 09:54:48;;;;;;;;;;;;;;;2.91;77.69;93593.06;5028293;28;20601;-84
2022/01/17 09:57:16;;;;;;;25.27;9.15;;;;;;;2.93;76.89;93601.34;5052299;28;19978;-82
2022/01/17 10:00:08;;;;;;;19.23;8.13;;;;;;;3.07;76.41;93610.88;5052263;28;20059;-83
2022/01/17 10:02:35;;;;;;;18.83;9.38;;;;;;;2.82;74.40;93604.16;5042163;28;20408;-83
2022/01/17 10:05:06;;;;;;;18.42;8.35;;;;;;;2.60;75.79;93599.44;5052055;28;20077;-83
2022/01/17 10:07:54;;;;;;;30.17;14.88;;;;;;;2.51;77.27;93601.13;5052039;28;20059;-83
2022/01/17 10:10:45;;;;;;;33.45;15.82;;;;;;;2.47;78.15;93606.66;5051977;28;20049;-83
2022/01/17 10:13:14;;;;;;;16.05;8.07;;;;;;;2.55;79.40;93606.72;5052202;28;20057;-83
2022/01/17 10:15:56;;;;;;;25.33;12.20;;;;;;;2.25;80.54;93547.91;5051982;28;20514;-83
2022/01/17 10:18:29;;;;;;;188.75;84.72;;;;;;;2.71;81.39;93598.38;5051881;28;20419;-83
2022/01/17 10:21:01;;;;;;;55.53;27.95;;;;;;;2.67;83.20;93618.19;5051775;28;20045;-83
2022/01/17 10:23:44;;;;;;;216.65;115.88;;;;;;;2.62;84.73;93620.38;5051822;28;20098;-86
2022/01/17 10:26:25;;;;;;;130.18;70.13;;;;;;;2.59;85.92;93605.44;5051800;28;20085;-83
2022/01/17 10:29:15;;;;;;;33.03;19.25;;;;;;;2.82;86.72;93602.38;5051799;28;20392;-84
2022/01/17 10:37:13;;;;;;;23.92;11.18;;;;;;;2.73;84.21;93590.63;5051749;28;20519;-82
2022/01/17 10:39:55;;;;;;;13.63;7.63;;;;;;;3.00;84.58;93592.16;5051552;28;20045;-83
2022/01/17 10:42:32;;;;;;;12.63;7.78;;;;;;;2.95;83.95;93599.44;5051424;28;20056;-82
2022/01/17 10:45:06;;;;;;;10.68;7.55;;;;;;;2.98;83.33;93591.53;5051462;28;20084;-82
2022/01/17 10:47:35;;;;;;;15.95;9.02;;;;;;;3.09;84.63;93580.28;5051361;28;20064;-82
2022/01/17 10:50:06;;;;;;;9.55;5.93;;;;;;;3.18;83.30;93573.47;5049627;28;20045;-83
2022/01/17 10:52:36;;;;;;;13.82;7.72;;;;;;;3.38;83.64;93574.00;5050923;28;20111;-83
2022/01/17 10:55:09;;;;;;;8.73;5.28;;;;;;;3.40;83.00;93563.69;5050627;28;20045;-83
2022/01/17 10:57:40;;;;;;;14.73;8.07;;;;;;;3.59;83.77;93575.31;5047874;28;20496;-83
2022/01/17 11:00:11;;;;;;;9.30;5.68;;;;;;;3.34;82.76;93573.53;5050448;28;20049;-83
2022/01/17 11:02:39;;;;;;;11.68;6.45;;;;;;;3.29;83.11;93568.13;5048083;28;20049;-83
2022/01/17 11:05:09;;;;;;;38.83;16.02;;;;;;;3.27;84.37;93571.75;5050867;28;20103;-84
2022/01/17 11:07:42;;;;;;;12.15;6.05;;;;;;;3.60;82.70;93575.16;5051075;28;20513;-83
2022/01/17 11:10:17;;;;;;;17.00;6.95;;;;;;;3.69;82.04;93582.78;5050912;28;20052;-83
2022/01/17 11:12:44;;;;;;;13.93;6.63;;;;;;;3.77;82.40;93587.06;5050145;28;20118;-82
2022/01/17 11:15:12;;;;;;;17.45;5.82;;;;;;;4.03;81.41;93575.97;5050473;28;20049;-83
2022/01/17 11:17:46;;;;;;;14.18;6.60;;;;;;;3.77;80.88;93575.16;5050384;28;20064;-86
2022/01/17 11:20:14;;;;;;;9.55;5.20;;;;;;;3.72;77.34;93570.56;5048332;28;20103;-82
2022/01/17 11:22:42;;;;;;;8.02;4.25;;;;;;;3.54;78.26;93562.28;5050498;28;20601;-83
2022/01/17 11:25:11;;;;;;;12.38;5.43;;;;;;;3.24;78.48;93559.38;5047657;28;20072;-82
2022/01/17 11:27:40;;;;;;;8.02;4.15;;;;;;;3.42;78.63;93560.03;5050211;28;20045;-82
2022/01/17 11:30:09;;;;;;;7.78;4.50;;;;;;;3.25;77.40;93543.19;5049968;28;20059;-83
2022/01/17 11:32:36;;;;;;;8.50;4.80;;;;;;;3.23;79.55;93553.50;5050297;28;20053;-82
2022/01/17 11:35:13;;;;;;;8.48;4.50;;;;;;;3.37;79.46;93531.78;5051309;28;20045;-83
2022/01/17 11:37:43;;;;;;;7.80;4.13;;;;;;;3.39;78.95;93512.13;5047432;28;20041;-85
2022/01/17 11:40:12;;;;;;;8.30;4.68;;;;;;;3.42;77.24;93544.81;5050197;28;20131;-84
2022/01/17 11:42:44;;;;;;;13.85;8.27;;;;;;;3.55;77.22;93548.63;5049775;28;20052;-82
2022/01/17 11:45:36;;;;;;;6.13;3.63;;;;;;;3.47;78.06;93542.59;5050077;28;20484;-83
2022/01/17 11:48:06;;;;;;;6.45;3.63;;;;;;;3.31;77.56;93540.84;5047718;28;20045;-83
2022/01/17 11:50:42;;;;;;;8.77;4.75;;;;;;;3.30;77.45;93544.34;5049900;28;20049;-83
2022/01/17 11:53:48;;;;;;;7.10;4.30;;;;;;;3.37;76.90;93536.88;5048198;28;20098;-83
2022/01/17 11:56:32;;;;;;;5.90;3.83;;;;;;;3.45;77.62;93519.13;5047623;28;20096;-83
2022/01/17 11:59:00;;;;;;;6.60;4.22;;;;;;;3.46;77.26;93504.66;5046359;28;20125;-83
2022/01/17 12:01:27;;;;;;;5.45;3.22;;;;;;;3.28;76.38;93499.75;5050549;28;20049;-82
2022/01/17 12:03:55;;;;;;;7.03;3.90;;;;;;;3.36;76.64;93512.44;5050416;28;20610;-83
2022/01/17 12:06:28;;;;;;;34.17;15.27;;;;;;;3.32;76.67;93506.06;5047617;28;20053;-83
2022/01/17 12:09:23;;;;;;;11.88;5.60;;;;;;;3.45;77.00;93529.28;5048251;28;20416;-83
2022/01/17 12:12:11;;;;;;;8.35;4.55;;;;;;;3.55;76.91;93534.19;5026494;28;20048;-83
2022/01/17 12:14:42;;;;;;;4.97;3.40;;;;;;;3.07;75.01;93529.66;5050487;28;20053;-83